sensor_id;sensor_type;location;lat;lon;timestamp;P1;durP1;ratioP1;P2;durP2;ratioP2
10343;SDS011;5217;43.960;10.954;2023-12-20T00:00:16;22.10;;;19.77;;
10343;SDS011;5217;43.960;10.954;2023-12-20T00:02:45;23.43;;;20.33;;
10343;SDS011;5217;43.960;10.954;2023-12-20T00:05:15;21.70;;;19.50;;
10343;SDS011;5217;43.960;10.954;2023-12-20T00:07:44;20.37;;;18.37;;
10343;SDS011;5217;43.960;10.954;2023-12-20T00:10:13;20.97;;;18.53;;
10343;SDS011;5217;43.960;10.954;2023-12-20T00:12:42;21.83;;;19.73;;
10343;SDS011;5217;43.960;10.954;2023-12-20T00:15:11;20.00;;;18.00;;
10343;SDS011;5217;43.960;10.954;2023-12-20T00:17:39;22.23;;;19.93;;
10343;SDS011;5217;43.960;10.954;2023-12-20T00:20:09;20.13;;;18.13;;
10343;SDS011;5217;43.960;10.954;2023-12-20T00:22:39;21.53;;;19.37;;
10343;SDS011;5217;43.960;10.954;2023-12-20T00:25:08;22.03;;;19.73;;
10343;SDS011;5217;43.960;10.954;2023-12-20T00:27:36;19.97;;;17.97;;
10343;SDS011;5217;43.960;10.954;2023-12-20T00:30:06;19.00;;;16.93;;
10343;SDS011;5217;43.960;10.954;2023-12-20T00:32:35;20.20;;;18.10;;
10343;SDS011;5217;43.960;10.954;2023-12-20T00:35:04;20.37;;;18.27;;
10343;SDS011;5217;43.960;10.954;2023-12-20T00:37:33;20.73;;;18.63;;
10343;SDS011;5217;43.960;10.954;2023-12-20T00:40:04;19.73;;;17.67;;
10343;SDS011;5217;43.960;10.954;2023-12-20T00:42:34;20.43;;;18.43;;
10343;SDS011;5217;43.960;10.954;2023-12-20T00:45:03;19.67;;;17.73;;
10343;SDS011;5217;43.960;10.954;2023-12-20T00:47:33;19.20;;;17.30;;
10343;SDS011;5217;43.960;10.954;2023-12-20T00:50:02;19.53;;;17.53;;
10343;SDS011;5217;43.960;10.954;2023-12-20T00:52:31;19.67;;;17.67;;
10343;SDS011;5217;43.960;10.954;2023-12-20T00:54:59;20.73;;;17.80;;
10343;SDS011;5217;43.960;10.954;2023-12-20T00:57:29;19.97;;;17.83;;
10343;SDS011;5217;43.960;10.954;2023-12-20T00:59:58;19.70;;;17.80;;
10343;SDS011;5217;43.960;10.954;2023-12-20T01:02:27;20.23;;;18.20;;
10343;SDS011;5217;43.960;10.954;2023-12-20T01:04:55;19.60;;;17.60;;
10343;SDS011;5217;43.960;10.954;2023-12-20T01:07:24;20.20;;;17.97;;
10343;SDS011;5217;43.960;10.954;2023-12-20T01:09:53;19.73;;;17.73;;
10343;SDS011;5217;43.960;10.954;2023-12-20T01:12:21;20.50;;;18.47;;
10343;SDS011;5217;43.960;10.954;2023-12-20T01:14:51;20.33;;;18.27;;
10343;SDS011;5217;43.960;10.954;2023-12-20T01:17:20;19.43;;;17.53;;
10343;SDS011;5217;43.960;10.954;2023-12-20T01:19:48;19.83;;;17.83;;
10343;SDS011;5217;43.960;10.954;2023-12-20T01:22:17;18.90;;;17.10;;
10343;SDS011;5217;43.960;10.954;2023-12-20T01:24:46;19.90;;;17.80;;
10343;SDS011;5217;43.960;10.954;2023-12-20T01:27:14;19.90;;;17.93;;
10343;SDS011;5217;43.960;10.954;2023-12-20T01:29:43;20.07;;;18.00;;
10343;SDS011;5217;43.960;10.954;2023-12-20T01:32:13;19.97;;;17.90;;
10343;SDS011;5217;43.960;10.954;2023-12-20T01:34:42;19.63;;;17.73;;
10343;SDS011;5217;43.960;10.954;2023-12-20T01:37:10;19.03;;;17.10;;
10343;SDS011;5217;43.960;10.954;2023-12-20T01:39:40;20.13;;;18.03;;
10343;SDS011;5217;43.960;10.954;2023-12-20T01:42:09;21.40;;;19.10;;
10343;SDS011;5217;43.960;10.954;2023-12-20T01:44:37;22.53;;;20.13;;
10343;SDS011;5217;43.960;10.954;2023-12-20T01:47:06;21.93;;;19.67;;
10343;SDS011;5217;43.960;10.954;2023-12-20T01:49:37;21.67;;;19.57;;
10343;SDS011;5217;43.960;10.954;2023-12-20T01:52:06;23.17;;;20.77;;
10343;SDS011;5217;43.960;10.954;2023-12-20T01:54:38;22.30;;;19.90;;
10343;SDS011;5217;43.960;10.954;2023-12-20T01:57:08;21.20;;;19.10;;
10343;SDS011;5217;43.960;10.954;2023-12-20T01:59:38;20.67;;;18.47;;
10343;SDS011;5217;43.960;10.954;2023-12-20T02:02:08;20.20;;;18.20;;
10343;SDS011;5217;43.960;10.954;2023-12-20T02:04:40;20.03;;;18.03;;
10343;SDS011;5217;43.960;10.954;2023-12-20T02:07:10;20.10;;;18.10;;
10343;SDS011;5217;43.960;10.954;2023-12-20T02:09:39;21.17;;;18.97;;
10343;SDS011;5217;43.960;10.954;2023-12-20T02:12:08;20.17;;;18.17;;
10343;SDS011;5217;43.960;10.954;2023-12-20T02:14:37;20.80;;;18.70;;
10343;SDS011;5217;43.960;10.954;2023-12-20T02:17:07;21.77;;;19.13;;
10343;SDS011;5217;43.960;10.954;2023-12-20T02:19:36;21.57;;;19.47;;
10343;SDS011;5217;43.960;10.954;2023-12-20T02:22:07;20.70;;;18.50;;
10343;SDS011;5217;43.960;10.954;2023-12-20T02:24:36;20.40;;;18.40;;
10343;SDS011;5217;43.960;10.954;2023-12-20T02:27:06;19.97;;;17.87;;
10343;SDS011;5217;43.960;10.954;2023-12-20T02:29:35;21.07;;;18.87;;
10343;SDS011;5217;43.960;10.954;2023-12-20T02:32:04;20.70;;;18.60;;
10343;SDS011;5217;43.960;10.954;2023-12-20T02:34:33;21.60;;;19.50;;
10343;SDS011;5217;43.960;10.954;2023-12-20T02:37:02;21.13;;;18.93;;
10343;SDS011;5217;43.960;10.954;2023-12-20T02:39:32;22.23;;;19.03;;
10343;SDS011;5217;43.960;10.954;2023-12-20T02:42:01;22.00;;;18.60;;
10343;SDS011;5217;43.960;10.954;2023-12-20T02:44:30;20.50;;;18.47;;
10343;SDS011;5217;43.960;10.954;2023-12-20T02:46:58;21.40;;;19.13;;
10343;SDS011;5217;43.960;10.954;2023-12-20T02:49:27;21.50;;;19.27;;
10343;SDS011;5217;43.960;10.954;2023-12-20T02:51:56;20.47;;;18.37;;
10343;SDS011;5217;43.960;10.954;2023-12-20T02:54:24;19.93;;;17.83;;
10343;SDS011;5217;43.960;10.954;2023-12-20T02:56:54;21.37;;;19.20;;
10343;SDS011;5217;43.960;10.954;2023-12-20T02:59:23;21.67;;;19.47;;
10343;SDS011;5217;43.960;10.954;2023-12-20T03:01:52;21.77;;;19.47;;
10343;SDS011;5217;43.960;10.954;2023-12-20T03:04:20;22.63;;;20.23;;
10343;SDS011;5217;43.960;10.954;2023-12-20T03:06:49;22.73;;;19.97;;
10343;SDS011;5217;43.960;10.954;2023-12-20T03:09:18;23.07;;;20.77;;
10343;SDS011;5217;43.960;10.954;2023-12-20T03:11:47;22.50;;;20.20;;
10343;SDS011;5217;43.960;10.954;2023-12-20T03:14:17;22.63;;;20.23;;
10343;SDS011;5217;43.960;10.954;2023-12-20T03:16:46;22.17;;;19.77;;
10343;SDS011;5217;43.960;10.954;2023-12-20T03:19:17;21.10;;;18.87;;
10343;SDS011;5217;43.960;10.954;2023-12-20T03:21:46;21.20;;;19.00;;
10343;SDS011;5217;43.960;10.954;2023-12-20T03:24:15;21.57;;;19.27;;
10343;SDS011;5217;43.960;10.954;2023-12-20T03:26:44;21.00;;;17.33;;
10343;SDS011;5217;43.960;10.954;2023-12-20T03:29:12;20.60;;;17.27;;
10343;SDS011;5217;43.960;10.954;2023-12-20T03:31:42;19.53;;;17.47;;
10343;SDS011;5217;43.960;10.954;2023-12-20T03:34:11;19.17;;;17.17;;
10343;SDS011;5217;43.960;10.954;2023-12-20T03:36:40;19.13;;;17.23;;
10343;SDS011;5217;43.960;10.954;2023-12-20T03:39:08;20.43;;;18.33;;
10343;SDS011;5217;43.960;10.954;2023-12-20T03:41:37;19.00;;;17.07;;
10343;SDS011;5217;43.960;10.954;2023-12-20T03:44:06;19.63;;;17.53;;
10343;SDS011;5217;43.960;10.954;2023-12-20T03:46:34;21.73;;;18.07;;
10343;SDS011;5217;43.960;10.954;2023-12-20T03:49:04;19.80;;;17.80;;
10343;SDS011;5217;43.960;10.954;2023-12-20T03:51:33;20.33;;;18.23;;
10343;SDS011;5217;43.960;10.954;2023-12-20T03:54:02;20.83;;;18.60;;
10343;SDS011;5217;43.960;10.954;2023-12-20T03:56:31;20.63;;;18.43;;
10343;SDS011;5217;43.960;10.954;2023-12-20T03:58:59;20.93;;;18.83;;
10343;SDS011;5217;43.960;10.954;2023-12-20T04:01:28;20.83;;;18.77;;
10343;SDS011;5217;43.960;10.954;2023-12-20T04:03:57;20.90;;;18.77;;
10343;SDS011;5217;43.960;10.954;2023-12-20T04:06:27;20.03;;;18.03;;
10343;SDS011;5217;43.960;10.954;2023-12-20T04:08:56;20.17;;;18.17;;
10343;SDS011;5217;43.960;10.954;2023-12-20T04:11:24;19.90;;;17.80;;
10343;SDS011;5217;43.960;10.954;2023-12-20T04:13:53;20.60;;;18.43;;
10343;SDS011;5217;43.960;10.954;2023-12-20T04:16:22;20.20;;;18.20;;
10343;SDS011;5217;43.960;10.954;2023-12-20T04:18:51;20.97;;;18.17;;
10343;SDS011;5217;43.960;10.954;2023-12-20T04:21:20;20.03;;;18.03;;
10343;SDS011;5217;43.960;10.954;2023-12-20T04:23:50;20.23;;;18.10;;
10343;SDS011;5217;43.960;10.954;2023-12-20T04:26:18;20.07;;;18.03;;
10343;SDS011;5217;43.960;10.954;2023-12-20T04:28:47;20.53;;;18.37;;
10343;SDS011;5217;43.960;10.954;2023-12-20T04:31:19;20.10;;;17.97;;
10343;SDS011;5217;43.960;10.954;2023-12-20T04:33:48;20.03;;;17.93;;
10343;SDS011;5217;43.960;10.954;2023-12-20T04:36:17;19.97;;;17.83;;
10343;SDS011;5217;43.960;10.954;2023-12-20T04:38:46;20.17;;;18.17;;
10343;SDS011;5217;43.960;10.954;2023-12-20T04:41:17;19.63;;;17.53;;
10343;SDS011;5217;43.960;10.954;2023-12-20T04:43:46;18.57;;;16.67;;
10343;SDS011;5217;43.960;10.954;2023-12-20T04:46:15;19.20;;;16.73;;
10343;SDS011;5217;43.960;10.954;2023-12-20T04:48:44;16.93;;;15.27;;
10343;SDS011;5217;43.960;10.954;2023-12-20T04:51:13;17.40;;;15.70;;
10343;SDS011;5217;43.960;10.954;2023-12-20T04:53:42;17.73;;;15.97;;
10343;SDS011;5217;43.960;10.954;2023-12-20T04:56:11;17.97;;;16.07;;
10343;SDS011;5217;43.960;10.954;2023-12-20T04:58:41;17.30;;;15.60;;
10343;SDS011;5217;43.960;10.954;2023-12-20T05:01:10;18.20;;;16.40;;
10343;SDS011;5217;43.960;10.954;2023-12-20T05:03:40;18.90;;;17.00;;
10343;SDS011;5217;43.960;10.954;2023-12-20T05:06:09;17.87;;;15.97;;
10343;SDS011;5217;43.960;10.954;2023-12-20T05:08:38;17.33;;;15.63;;
10343;SDS011;5217;43.960;10.954;2023-12-20T05:11:07;18.33;;;16.50;;
10343;SDS011;5217;43.960;10.954;2023-12-20T05:13:36;18.33;;;16.53;;
10343;SDS011;5217;43.960;10.954;2023-12-20T05:16:16;18.17;;;16.23;;
10343;SDS011;5217;43.960;10.954;2023-12-20T05:18:48;18.80;;;16.80;;
10343;SDS011;5217;43.960;10.954;2023-12-20T05:21:19;20.93;;;18.83;;
10343;SDS011;5217;43.960;10.954;2023-12-20T05:23:48;21.33;;;19.27;;
10343;SDS011;5217;43.960;10.954;2023-12-20T05:26:17;22.60;;;20.23;;
10343;SDS011;5217;43.960;10.954;2023-12-20T05:28:46;25.00;;;22.30;;
10343;SDS011;5217;43.960;10.954;2023-12-20T05:31:15;24.20;;;21.67;;
10343;SDS011;5217;43.960;10.954;2023-12-20T05:33:45;26.07;;;23.33;;
10343;SDS011;5217;43.960;10.954;2023-12-20T05:36:14;25.43;;;22.53;;
10343;SDS011;5217;43.960;10.954;2023-12-20T05:38:43;26.23;;;23.40;;
10343;SDS011;5217;43.960;10.954;2023-12-20T05:41:12;26.37;;;23.53;;
10343;SDS011;5217;43.960;10.954;2023-12-20T05:43:41;26.83;;;23.90;;
10343;SDS011;5217;43.960;10.954;2023-12-20T05:46:10;27.67;;;24.77;;
10343;SDS011;5217;43.960;10.954;2023-12-20T05:48:40;28.40;;;25.40;;
10343;SDS011;5217;43.960;10.954;2023-12-20T05:51:11;27.87;;;24.93;;
10343;SDS011;5217;43.960;10.954;2023-12-20T05:53:40;26.40;;;23.60;;
10343;SDS011;5217;43.960;10.954;2023-12-20T05:56:09;25.83;;;22.67;;
10343;SDS011;5217;43.960;10.954;2023-12-20T05:58:38;25.67;;;22.93;;
10343;SDS011;5217;43.960;10.954;2023-12-20T06:01:07;24.83;;;22.13;;
10343;SDS011;5217;43.960;10.954;2023-12-20T06:03:36;22.53;;;20.23;;
10343;SDS011;5217;43.960;10.954;2023-12-20T06:06:10;20.83;;;18.73;;
10343;SDS011;5217;43.960;10.954;2023-12-20T06:08:42;19.57;;;17.37;;
10343;SDS011;5217;43.960;10.954;2023-12-20T06:11:11;18.33;;;16.47;;
10343;SDS011;5217;43.960;10.954;2023-12-20T06:13:41;18.57;;;16.70;;
10343;SDS011;5217;43.960;10.954;2023-12-20T06:16:10;17.77;;;16.07;;
10343;SDS011;5217;43.960;10.954;2023-12-20T06:18:39;17.87;;;16.03;;
10343;SDS011;5217;43.960;10.954;2023-12-20T06:21:10;16.93;;;15.20;;
10343;SDS011;5217;43.960;10.954;2023-12-20T06:23:39;16.30;;;14.60;;
10343;SDS011;5217;43.960;10.954;2023-12-20T06:26:08;15.33;;;13.73;;
10343;SDS011;5217;43.960;10.954;2023-12-20T06:28:36;16.10;;;14.50;;
10343;SDS011;5217;43.960;10.954;2023-12-20T06:31:07;15.93;;;14.23;;
10343;SDS011;5217;43.960;10.954;2023-12-20T06:33:36;16.90;;;15.23;;
10343;SDS011;5217;43.960;10.954;2023-12-20T06:36:07;16.37;;;14.57;;
10343;SDS011;5217;43.960;10.954;2023-12-20T06:38:38;17.53;;;15.80;;
10343;SDS011;5217;43.960;10.954;2023-12-20T06:41:08;18.30;;;16.40;;
10343;SDS011;5217;43.960;10.954;2023-12-20T06:43:42;19.03;;;17.07;;
10343;SDS011;5217;43.960;10.954;2023-12-20T06:46:16;18.07;;;16.17;;
10343;SDS011;5217;43.960;10.954;2023-12-20T06:48:45;19.07;;;17.17;;
10343;SDS011;5217;43.960;10.954;2023-12-20T06:51:15;19.30;;;17.43;;
10343;SDS011;5217;43.960;10.954;2023-12-20T06:53:46;21.77;;;19.40;;
10343;SDS011;5217;43.960;10.954;2023-12-20T06:56:15;23.47;;;21.13;;
10343;SDS011;5217;43.960;10.954;2023-12-20T06:58:45;25.47;;;23.07;;
10343;SDS011;5217;43.960;10.954;2023-12-20T07:01:14;26.10;;;23.60;;
10343;SDS011;5217;43.960;10.954;2023-12-20T07:03:44;23.83;;;21.53;;
10343;SDS011;5217;43.960;10.954;2023-12-20T07:06:13;23.57;;;21.10;;
10343;SDS011;5217;43.960;10.954;2023-12-20T07:08:44;22.97;;;20.67;;
10343;SDS011;5217;43.960;10.954;2023-12-20T07:11:13;23.37;;;20.03;;
10343;SDS011;5217;43.960;10.954;2023-12-20T07:13:42;23.07;;;19.73;;
10343;SDS011;5217;43.960;10.954;2023-12-20T07:16:10;22.80;;;20.50;;
10343;SDS011;5217;43.960;10.954;2023-12-20T07:18:40;22.67;;;20.30;;
10343;SDS011;5217;43.960;10.954;2023-12-20T07:21:08;22.80;;;20.50;;
10343;SDS011;5217;43.960;10.954;2023-12-20T07:23:37;22.23;;;19.93;;
10343;SDS011;5217;43.960;10.954;2023-12-20T07:26:07;22.33;;;20.03;;
10343;SDS011;5217;43.960;10.954;2023-12-20T07:28:36;21.57;;;19.27;;
10343;SDS011;5217;43.960;10.954;2023-12-20T07:31:05;22.03;;;19.73;;
10343;SDS011;5217;43.960;10.954;2023-12-20T07:33:33;22.10;;;19.80;;
10343;SDS011;5217;43.960;10.954;2023-12-20T07:36:05;23.17;;;20.77;;
10343;SDS011;5217;43.960;10.954;2023-12-20T07:38:34;23.90;;;21.40;;
10343;SDS011;5217;43.960;10.954;2023-12-20T07:41:03;24.37;;;21.73;;
10343;SDS011;5217;43.960;10.954;2023-12-20T07:43:34;24.73;;;21.60;;
10343;SDS011;5217;43.960;10.954;2023-12-20T07:46:05;22.53;;;20.27;;
10343;SDS011;5217;43.960;10.954;2023-12-20T07:48:34;21.23;;;18.93;;
10343;SDS011;5217;43.960;10.954;2023-12-20T07:51:03;21.80;;;19.60;;
10343;SDS011;5217;43.960;10.954;2023-12-20T07:53:35;21.10;;;18.97;;
10343;SDS011;5217;43.960;10.954;2023-12-20T07:56:13;20.47;;;18.27;;
10343;SDS011;5217;43.960;10.954;2023-12-20T07:58:44;22.33;;;20.13;;
10343;SDS011;5217;43.960;10.954;2023-12-20T08:01:19;26.97;;;24.07;;
10343;SDS011;5217;43.960;10.954;2023-12-20T08:03:49;26.03;;;23.23;;
10343;SDS011;5217;43.960;10.954;2023-12-20T08:06:18;25.27;;;22.77;;
10343;SDS011;5217;43.960;10.954;2023-12-20T08:08:47;25.73;;;23.23;;
10343;SDS011;5217;43.960;10.954;2023-12-20T08:11:27;25.97;;;23.37;;
10343;SDS011;5217;43.960;10.954;2023-12-20T08:14:01;22.67;;;20.47;;
10343;SDS011;5217;43.960;10.954;2023-12-20T08:16:30;21.10;;;19.00;;
10343;SDS011;5217;43.960;10.954;2023-12-20T08:18:58;19.43;;;17.43;;
10343;SDS011;5217;43.960;10.954;2023-12-20T08:21:27;18.17;;;16.33;;
10343;SDS011;5217;43.960;10.954;2023-12-20T08:23:58;18.33;;;16.53;;
10343;SDS011;5217;43.960;10.954;2023-12-20T08:26:27;19.23;;;17.27;;
10343;SDS011;5217;43.960;10.954;2023-12-20T08:28:56;20.47;;;18.37;;
10343;SDS011;5217;43.960;10.954;2023-12-20T08:31:29;21.27;;;19.07;;
10343;SDS011;5217;43.960;10.954;2023-12-20T08:33:57;21.13;;;18.93;;
10343;SDS011;5217;43.960;10.954;2023-12-20T08:36:26;21.17;;;18.87;;
10343;SDS011;5217;43.960;10.954;2023-12-20T08:38:55;21.50;;;19.40;;
10343;SDS011;5217;43.960;10.954;2023-12-20T08:41:24;20.23;;;18.23;;
10343;SDS011;5217;43.960;10.954;2023-12-20T08:43:52;20.70;;;18.60;;
10343;SDS011;5217;43.960;10.954;2023-12-20T08:46:21;21.33;;;19.13;;
10343;SDS011;5217;43.960;10.954;2023-12-20T08:48:51;20.97;;;18.93;;
10343;SDS011;5217;43.960;10.954;2023-12-20T08:51:20;21.27;;;19.17;;
10343;SDS011;5217;43.960;10.954;2023-12-20T08:53:50;21.33;;;19.20;;
10343;SDS011;5217;43.960;10.954;2023-12-20T08:56:18;23.63;;;21.03;;
10343;SDS011;5217;43.960;10.954;2023-12-20T08:58:47;23.27;;;20.87;;
10343;SDS011;5217;43.960;10.954;2023-12-20T09:01:16;23.27;;;20.87;;
10343;SDS011;5217;43.960;10.954;2023-12-20T09:03:45;22.83;;;20.63;;
10343;SDS011;5217;43.960;10.954;2023-12-20T09:06:15;23.13;;;20.83;;
10343;SDS011;5217;43.960;10.954;2023-12-20T09:08:44;23.73;;;21.33;;
10343;SDS011;5217;43.960;10.954;2023-12-20T09:11:13;24.80;;;22.27;;
10343;SDS011;5217;43.960;10.954;2023-12-20T09:13:42;24.23;;;21.77;;
10343;SDS011;5217;43.960;10.954;2023-12-20T09:16:11;24.43;;;22.03;;
10343;SDS011;5217;43.960;10.954;2023-12-20T09:18:42;25.27;;;22.73;;
10343;SDS011;5217;43.960;10.954;2023-12-20T09:21:11;25.00;;;22.50;;
10343;SDS011;5217;43.960;10.954;2023-12-20T09:23:41;26.63;;;23.90;;
10343;SDS011;5217;43.960;10.954;2023-12-20T09:26:10;26.47;;;23.57;;
10343;SDS011;5217;43.960;10.954;2023-12-20T09:28:39;27.83;;;24.90;;
10343;SDS011;5217;43.960;10.954;2023-12-20T09:31:07;29.63;;;26.30;;
10343;SDS011;5217;43.960;10.954;2023-12-20T09:33:36;35.17;;;30.10;;
10343;SDS011;5217;43.960;10.954;2023-12-20T09:36:05;35.20;;;31.33;;
10343;SDS011;5217;43.960;10.954;2023-12-20T09:38:34;33.37;;;29.63;;
10343;SDS011;5217;43.960;10.954;2023-12-20T09:41:04;36.20;;;30.13;;
10343;SDS011;5217;43.960;10.954;2023-12-20T09:43:33;35.33;;;31.53;;
10343;SDS011;5217;43.960;10.954;2023-12-20T09:46:05;35.00;;;31.20;;
10343;SDS011;5217;43.960;10.954;2023-12-20T09:48:35;35.20;;;31.33;;
10343;SDS011;5217;43.960;10.954;2023-12-20T09:51:05;37.23;;;33.27;;
10343;SDS011;5217;43.960;10.954;2023-12-20T09:53:34;36.20;;;31.57;;
10343;SDS011;5217;43.960;10.954;2023-12-20T09:56:06;38.83;;;32.43;;
10343;SDS011;5217;43.960;10.954;2023-12-20T09:58:36;36.00;;;31.73;;
10343;SDS011;5217;43.960;10.954;2023-12-20T10:01:06;37.00;;;33.10;;
10343;SDS011;5217;43.960;10.954;2023-12-20T10:03:35;37.87;;;33.77;;
10343;SDS011;5217;43.960;10.954;2023-12-20T10:06:08;38.07;;;33.83;;
10343;SDS011;5217;43.960;10.954;2023-12-20T10:08:38;39.10;;;34.87;;
10343;SDS011;5217;43.960;10.954;2023-12-20T10:11:08;42.70;;;36.70;;
10343;SDS011;5217;43.960;10.954;2023-12-20T10:13:39;42.27;;;36.87;;
10343;SDS011;5217;43.960;10.954;2023-12-20T10:16:08;39.30;;;34.90;;
10343;SDS011;5217;43.960;10.954;2023-12-20T10:18:37;39.27;;;34.53;;
10343;SDS011;5217;43.960;10.954;2023-12-20T10:21:07;41.47;;;36.23;;
10343;SDS011;5217;43.960;10.954;2023-12-20T10:23:37;38.03;;;33.90;;
10343;SDS011;5217;43.960;10.954;2023-12-20T10:26:09;40.53;;;36.10;;
10343;SDS011;5217;43.960;10.954;2023-12-20T10:28:39;39.87;;;34.67;;
10343;SDS011;5217;43.960;10.954;2023-12-20T10:31:07;42.37;;;35.57;;
10343;SDS011;5217;43.960;10.954;2023-12-20T10:33:36;103.57;;;45.43;;
10343;SDS011;5217;43.960;10.954;2023-12-20T10:36:08;123.37;;;47.70;;
10343;SDS011;5217;43.960;10.954;2023-12-20T10:38:40;55.57;;;39.10;;
10343;SDS011;5217;43.960;10.954;2023-12-20T10:41:12;43.97;;;37.87;;
10343;SDS011;5217;43.960;10.954;2023-12-20T10:43:45;43.27;;;38.30;;
10343;SDS011;5217;43.960;10.954;2023-12-20T10:46:14;44.67;;;37.17;;
10343;SDS011;5217;43.960;10.954;2023-12-20T10:48:45;42.73;;;37.70;;
10343;SDS011;5217;43.960;10.954;2023-12-20T10:51:17;43.20;;;37.37;;
10343;SDS011;5217;43.960;10.954;2023-12-20T10:53:46;43.00;;;36.40;;
10343;SDS011;5217;43.960;10.954;2023-12-20T10:56:18;41.10;;;35.70;;
10343;SDS011;5217;43.960;10.954;2023-12-20T10:58:47;42.70;;;36.97;;
10343;SDS011;5217;43.960;10.954;2023-12-20T11:01:17;43.70;;;37.97;;
10343;SDS011;5217;43.960;10.954;2023-12-20T11:03:48;43.67;;;37.50;;
10343;SDS011;5217;43.960;10.954;2023-12-20T11:06:20;42.40;;;37.73;;
10343;SDS011;5217;43.960;10.954;2023-12-20T11:09:03;43.10;;;38.40;;
10343;SDS011;5217;43.960;10.954;2023-12-20T11:11:45;42.07;;;37.50;;
10343;SDS011;5217;43.960;10.954;2023-12-20T11:14:25;45.33;;;40.30;;
10343;SDS011;5217;43.960;10.954;2023-12-20T11:17:06;45.47;;;39.77;;
10343;SDS011;5217;43.960;10.954;2023-12-20T11:19:36;51.57;;;44.80;;
10343;SDS011;5217;43.960;10.954;2023-12-20T11:22:06;59.77;;;49.60;;
10343;SDS011;5217;43.960;10.954;2023-12-20T11:24:34;70.03;;;56.40;;
10343;SDS011;5217;43.960;10.954;2023-12-20T11:27:05;59.43;;;49.73;;
10343;SDS011;5217;43.960;10.954;2023-12-20T11:29:35;58.97;;;49.13;;
10343;SDS011;5217;43.960;10.954;2023-12-20T11:32:27;56.97;;;47.33;;
10343;SDS011;5217;43.960;10.954;2023-12-20T11:34:57;57.77;;;50.63;;
10343;SDS011;5217;43.960;10.954;2023-12-20T11:37:28;56.87;;;50.40;;
10343;SDS011;5217;43.960;10.954;2023-12-20T11:40:00;58.57;;;47.53;;
10343;SDS011;5217;43.960;10.954;2023-12-20T11:42:34;56.43;;;46.83;;
10343;SDS011;5217;43.960;10.954;2023-12-20T11:45:08;54.43;;;45.90;;
10343;SDS011;5217;43.960;10.954;2023-12-20T11:47:37;53.03;;;45.50;;
10343;SDS011;5217;43.960;10.954;2023-12-20T11:50:06;51.23;;;43.70;;
10343;SDS011;5217;43.960;10.954;2023-12-20T11:52:35;50.73;;;44.73;;
10343;SDS011;5217;43.960;10.954;2023-12-20T11:55:04;54.37;;;45.77;;
10343;SDS011;5217;43.960;10.954;2023-12-20T11:57:35;56.00;;;46.97;;
10343;SDS011;5217;43.960;10.954;2023-12-20T12:00:05;51.40;;;45.27;;
10343;SDS011;5217;43.960;10.954;2023-12-20T12:02:35;60.27;;;47.37;;
10343;SDS011;5217;43.960;10.954;2023-12-20T12:05:03;54.83;;;45.43;;
10343;SDS011;5217;43.960;10.954;2023-12-20T12:07:33;54.77;;;47.13;;
10343;SDS011;5217;43.960;10.954;2023-12-20T12:10:02;57.83;;;48.37;;
10343;SDS011;5217;43.960;10.954;2023-12-20T12:12:32;53.10;;;45.40;;
10343;SDS011;5217;43.960;10.954;2023-12-20T12:15:02;54.90;;;46.33;;
10343;SDS011;5217;43.960;10.954;2023-12-20T12:17:32;58.40;;;46.60;;
10343;SDS011;5217;43.960;10.954;2023-12-20T12:20:05;52.10;;;45.70;;
10343;SDS011;5217;43.960;10.954;2023-12-20T12:22:35;52.43;;;46.73;;
10343;SDS011;5217;43.960;10.954;2023-12-20T12:25:11;55.30;;;47.17;;
10343;SDS011;5217;43.960;10.954;2023-12-20T12:27:42;57.60;;;49.47;;
10343;SDS011;5217;43.960;10.954;2023-12-20T12:30:12;53.03;;;46.00;;
10343;SDS011;5217;43.960;10.954;2023-12-20T12:32:44;55.93;;;47.90;;
10343;SDS011;5217;43.960;10.954;2023-12-20T12:35:13;54.00;;;45.17;;
10343;SDS011;5217;43.960;10.954;2023-12-20T12:37:42;53.23;;;45.63;;
10343;SDS011;5217;43.960;10.954;2023-12-20T12:40:12;54.80;;;46.70;;
10343;SDS011;5217;43.960;10.954;2023-12-20T12:42:43;53.53;;;45.53;;
10343;SDS011;5217;43.960;10.954;2023-12-20T12:45:13;52.60;;;46.83;;
10343;SDS011;5217;43.960;10.954;2023-12-20T12:47:42;54.07;;;47.73;;
10343;SDS011;5217;43.960;10.954;2023-12-20T12:50:11;53.60;;;45.90;;
10343;SDS011;5217;43.960;10.954;2023-12-20T12:52:40;59.23;;;48.67;;
10343;SDS011;5217;43.960;10.954;2023-12-20T12:55:08;56.97;;;48.03;;
10343;SDS011;5217;43.960;10.954;2023-12-20T12:57:37;55.57;;;47.37;;
10343;SDS011;5217;43.960;10.954;2023-12-20T13:00:08;51.73;;;45.20;;
10343;SDS011;5217;43.960;10.954;2023-12-20T13:02:37;53.00;;;46.47;;
10343;SDS011;5217;43.960;10.954;2023-12-20T13:05:08;51.23;;;45.63;;
10343;SDS011;5217;43.960;10.954;2023-12-20T13:07:37;54.80;;;47.67;;
10343;SDS011;5217;43.960;10.954;2023-12-20T13:10:07;53.43;;;45.83;;
10343;SDS011;5217;43.960;10.954;2023-12-20T13:12:37;56.53;;;47.67;;
10343;SDS011;5217;43.960;10.954;2023-12-20T13:15:07;55.00;;;48.47;;
10343;SDS011;5217;43.960;10.954;2023-12-20T13:17:36;56.07;;;47.70;;
10343;SDS011;5217;43.960;10.954;2023-12-20T13:20:07;56.73;;;48.70;;
10343;SDS011;5217;43.960;10.954;2023-12-20T13:22:36;54.17;;;48.10;;
10343;SDS011;5217;43.960;10.954;2023-12-20T13:25:05;53.97;;;48.07;;
10343;SDS011;5217;43.960;10.954;2023-12-20T13:27:34;53.90;;;47.90;;
10343;SDS011;5217;43.960;10.954;2023-12-20T13:30:03;52.17;;;46.47;;
10343;SDS011;5217;43.960;10.954;2023-12-20T13:32:34;50.23;;;44.80;;
10343;SDS011;5217;43.960;10.954;2023-12-20T13:35:03;50.23;;;44.57;;
10343;SDS011;5217;43.960;10.954;2023-12-20T13:37:33;51.57;;;46.07;;
10343;SDS011;5217;43.960;10.954;2023-12-20T13:40:02;54.13;;;47.23;;
10343;SDS011;5217;43.960;10.954;2023-12-20T13:42:31;53.27;;;47.70;;
10343;SDS011;5217;43.960;10.954;2023-12-20T13:44:59;52.90;;;47.17;;
10343;SDS011;5217;43.960;10.954;2023-12-20T13:47:28;49.53;;;44.33;;
10343;SDS011;5217;43.960;10.954;2023-12-20T13:49:58;54.63;;;48.70;;
10343;SDS011;5217;43.960;10.954;2023-12-20T13:52:27;59.47;;;53.17;;
10343;SDS011;5217;43.960;10.954;2023-12-20T13:54:55;54.43;;;48.60;;
10343;SDS011;5217;43.960;10.954;2023-12-20T13:57:24;54.30;;;48.30;;
10343;SDS011;5217;43.960;10.954;2023-12-20T14:00:13;52.43;;;46.97;;
10343;SDS011;5217;43.960;10.954;2023-12-20T14:02:42;52.67;;;46.93;;
10343;SDS011;5217;43.960;10.954;2023-12-20T14:05:14;49.83;;;44.53;;
10343;SDS011;5217;43.960;10.954;2023-12-20T14:07:44;51.83;;;46.20;;
10343;SDS011;5217;43.960;10.954;2023-12-20T14:10:14;50.67;;;45.17;;
10343;SDS011;5217;43.960;10.954;2023-12-20T14:12:43;52.10;;;46.30;;
10343;SDS011;5217;43.960;10.954;2023-12-20T14:15:12;51.47;;;45.03;;
10343;SDS011;5217;43.960;10.954;2023-12-20T14:17:41;55.00;;;47.33;;
10343;SDS011;5217;43.960;10.954;2023-12-20T14:20:10;50.80;;;45.40;;
10343;SDS011;5217;43.960;10.954;2023-12-20T14:22:41;51.83;;;46.23;;
10343;SDS011;5217;43.960;10.954;2023-12-20T14:25:11;50.83;;;45.23;;
10343;SDS011;5217;43.960;10.954;2023-12-20T14:27:41;54.87;;;48.07;;
10343;SDS011;5217;43.960;10.954;2023-12-20T14:30:12;53.07;;;47.37;;
10343;SDS011;5217;43.960;10.954;2023-12-20T14:32:41;55.57;;;49.37;;
10343;SDS011;5217;43.960;10.954;2023-12-20T14:35:10;54.50;;;48.53;;